sensor_id;sensor_type;location;lat;lon;timestamp;pressure;altitude;pressure_sealevel;temperature;humidity
14790;BME280;7486;51.010;10.366;2023-02-02T00:01:00;98289.16;;;0.18;83.29
14790;BME280;7486;51.010;10.366;2023-02-02T00:03:27;98287.09;;;0.12;83.46
14790;BME280;7486;51.010;10.366;2023-02-02T00:05:53;98273.13;;;0.03;83.45
14790;BME280;7486;51.010;10.366;2023-02-02T00:08:21;98289.56;;;-0.06;83.82
14790;BME280;7486;51.010;10.366;2023-02-02T00:10:47;98297.78;;;-0.10;84.05
14790;BME280;7486;51.010;10.366;2023-02-02T00:13:14;98302.16;;;-0.30;85.36
14790;BME280;7486;51.010;10.366;2023-02-02T00:15:40;98296.97;;;-0.20;85.47
14790;BME280;7486;51.010;10.366;2023-02-02T00:18:07;98276.16;;;-0.11;84.26
14790;BME280;7486;51.010;10.366;2023-02-02T00:20:34;98293.84;;;-0.14;84.87
14790;BME280;7486;51.010;10.366;2023-02-02T00:23:01;98283.81;;;-0.09;84.61
14790;BME280;7486;51.010;10.366;2023-02-02T00:25:28;98292.31;;;-0.26;85.38
14790;BME280;7486;51.010;10.366;2023-02-02T00:27:55;98297.53;;;-0.17;84.65
14790;BME280;7486;51.010;10.366;2023-02-02T00:30:22;98288.34;;;-0.11;84.31
14790;BME280;7486;51.010;10.366;2023-02-02T00:32:50;98304.38;;;-0.06;83.63
14790;BME280;7486;51.010;10.366;2023-02-02T00:35:17;98290.41;;;-0.15;83.85
14790;BME280;7486;51.010;10.366;2023-02-02T00:37:44;98279.97;;;0.04;83.27
14790;BME280;7486;51.010;10.366;2023-02-02T00:40:11;98277.25;;;0.06;82.80
14790;BME280;7486;51.010;10.366;2023-02-02T00:42:38;98274.94;;;0.03;82.19
14790;BME280;7486;51.010;10.366;2023-02-02T00:45:05;98292.56;;;0.28;81.90
14790;BME280;7486;51.010;10.366;2023-02-02T00:47:32;98264.09;;;-0.02;81.73
14790;BME280;7486;51.010;10.366;2023-02-02T00:49:59;98278.19;;;0.05;83.06
14790;BME280;7486;51.010;10.366;2023-02-02T00:52:25;98286.00;;;0.05;82.82
14790;BME280;7486;51.010;10.366;2023-02-02T00:54:52;98285.75;;;0.08;82.71
14790;BME280;7486;51.010;10.366;2023-02-02T00:57:19;98293.28;;;-0.08;83.86
14790;BME280;7486;51.010;10.366;2023-02-02T00:59:45;98284.25;;;-0.04;83.99
14790;BME280;7486;51.010;10.366;2023-02-02T01:02:12;98294.78;;;0.04;83.14
14790;BME280;7486;51.010;10.366;2023-02-02T01:04:39;98272.03;;;-0.13;82.21
14790;BME280;7486;51.010;10.366;2023-02-02T01:07:07;98264.50;;;-0.16;82.02
14790;BME280;7486;51.010;10.366;2023-02-02T01:09:33;98280.81;;;0.05;81.98
14790;BME280;7486;51.010;10.366;2023-02-02T01:12:00;98289.84;;;-0.09;82.54
14790;BME280;7486;51.010;10.366;2023-02-02T01:14:27;98280.41;;;-0.00;81.57
14790;BME280;7486;51.010;10.366;2023-02-02T01:16:54;98271.22;;;-0.04;81.20
14790;BME280;7486;51.010;10.366;2023-02-02T01:19:21;98280.94;;;0.03;80.95
14790;BME280;7486;51.010;10.366;2023-02-02T01:21:47;98279.28;;;0.12;80.77
14790;BME280;7486;51.010;10.366;2023-02-02T01:24:14;98280.25;;;0.01;80.93
14790;BME280;7486;51.010;10.366;2023-02-02T01:26:41;98280.41;;;-0.00;81.17
14790;BME280;7486;51.010;10.366;2023-02-02T01:29:07;98285.19;;;0.04;81.62
14790;BME280;7486;51.010;10.366;2023-02-02T01:31:34;98286.13;;;0.03;81.44
14790;BME280;7486;51.010;10.366;2023-02-02T01:34:01;98235.59;;;-0.23;81.08
14790;BME280;7486;51.010;10.366;2023-02-02T01:36:29;98283.94;;;0.18;80.92
14790;BME280;7486;51.010;10.366;2023-02-02T01:38:56;98275.31;;;0.08;80.44
14790;BME280;7486;51.010;10.366;2023-02-02T01:41:24;98268.06;;;0.11;80.35
14790;BME280;7486;51.010;10.366;2023-02-02T01:43:54;98287.78;;;0.24;80.26
14790;BME280;7486;51.010;10.366;2023-02-02T01:49:19;98286.84;;;-0.04;81.28
14790;BME280;7486;51.010;10.366;2023-02-02T01:51:58;98297.78;;;-0.10;80.79
14790;BME280;7486;51.010;10.366;2023-02-02T01:54:37;98308.38;;;0.17;80.94
14790;BME280;7486;51.010;10.366;2023-02-02T01:57:50;98265.47;;;-0.36;81.07
14790;BME280;7486;51.010;10.366;2023-02-02T02:00:18;98311.34;;;-0.07;80.82
14790;BME280;7486;51.010;10.366;2023-02-02T02:02:47;98264.94;;;-0.21;79.54
14790;BME280;7486;51.010;10.366;2023-02-02T02:05:28;98266.56;;;-0.20;79.65
14790;BME280;7486;51.010;10.366;2023-02-02T02:08:12;98318.09;;;0.05;79.57
14790;BME280;7486;51.010;10.366;2023-02-02T02:10:40;98295.34;;;-0.02;79.61
14790;BME280;7486;51.010;10.366;2023-02-02T02:13:07;98308.34;;;0.07;78.88
14790;BME280;7486;51.010;10.366;2023-02-02T02:15:47;98315.22;;;0.08;78.35
14790;BME280;7486;51.010;10.366;2023-02-02T02:34:54;98326.03;;;-0.15;76.54
14790;BME280;7486;51.010;10.366;2023-02-02T02:42:52;98338.94;;;-0.04;76.76
14790;BME280;7486;51.010;10.366;2023-02-02T02:45:22;98326.19;;;-0.07;76.45
14790;BME280;7486;51.010;10.366;2023-02-02T02:47:51;98339.88;;;-0.05;75.52
14790;BME280;7486;51.010;10.366;2023-02-02T02:50:19;98353.72;;;-0.14;76.73
14790;BME280;7486;51.010;10.366;2023-02-02T02:52:48;98292.84;;;-0.42;76.59
14790;BME280;7486;51.010;10.366;2023-02-02T02:55:18;98346.19;;;-0.08;76.38
14790;BME280;7486;51.010;10.366;2023-02-02T02:58:18;98344.81;;;-0.12;77.36
14790;BME280;7486;51.010;10.366;2023-02-02T03:00:53;98338.06;;;-0.24;76.74
14790;BME280;7486;51.010;10.366;2023-02-02T03:06:36;98349.63;;;-0.07;75.94
14790;BME280;7486;51.010;10.366;2023-02-02T03:09:09;98358.66;;;-0.11;76.44
14790;BME280;7486;51.010;10.366;2023-02-02T03:11:37;98358.09;;;-0.05;75.67
14790;BME280;7486;51.010;10.366;2023-02-02T03:14:04;98352.78;;;-0.04;75.68
14790;BME280;7486;51.010;10.366;2023-02-02T03:16:30;98352.63;;;-0.02;75.17
14790;BME280;7486;51.010;10.366;2023-02-02T03:18:57;98345.09;;;-0.05;75.04
14790;BME280;7486;51.010;10.366;2023-02-02T03:21:49;98343.16;;;-0.13;74.57
14790;BME280;7486;51.010;10.366;2023-02-02T03:24:16;98353.16;;;-0.08;74.87
14790;BME280;7486;51.010;10.366;2023-02-02T03:26:43;98308.63;;;-0.24;74.16
14790;BME280;7486;51.010;10.366;2023-02-02T03:29:10;98348.34;;;-0.03;73.38
14790;BME280;7486;51.010;10.366;2023-02-02T03:31:38;98364.13;;;-0.14;75.21
14790;BME280;7486;51.010;10.366;2023-02-02T03:34:04;98359.44;;;-0.20;75.03
14790;BME280;7486;51.010;10.366;2023-02-02T03:36:31;98367.28;;;-0.01;74.28
14790;BME280;7486;51.010;10.366;2023-02-02T03:38:58;98372.38;;;0.20;74.14
14790;BME280;7486;51.010;10.366;2023-02-02T03:41:24;98376.75;;;0.19;73.89
14790;BME280;7486;51.010;10.366;2023-02-02T03:43:51;98377.97;;;0.34;73.86
14790;BME280;7486;51.010;10.366;2023-02-02T03:46:18;98356.44;;;0.03;74.38
14790;BME280;7486;51.010;10.366;2023-02-02T03:48:44;98395.13;;;0.18;74.61
14790;BME280;7486;51.010;10.366;2023-02-02T03:51:13;98391.84;;;0.25;74.96
14790;BME280;7486;51.010;10.366;2023-02-02T03:54:05;98398.44;;;0.10;74.67
14790;BME280;7486;51.010;10.366;2023-02-02T03:56:32;98379.47;;;-0.11;74.94
14790;BME280;7486;51.010;10.366;2023-02-02T03:58:58;98411.84;;;0.05;74.79
14790;BME280;7486;51.010;10.366;2023-02-02T04:01:27;98408.28;;;0.06;75.21
14790;BME280;7486;51.010;10.366;2023-02-02T04:03:56;98408.00;;;0.09;74.35
14790;BME280;7486;51.010;10.366;2023-02-02T04:06:24;98411.19;;;0.13;74.43
14790;BME280;7486;51.010;10.366;2023-02-02T04:08:51;98417.00;;;-0.14;75.04
14790;BME280;7486;51.010;10.366;2023-02-02T04:11:18;98423.34;;;0.03;75.22
14790;BME280;7486;51.010;10.366;2023-02-02T04:13:44;98412.00;;;0.14;74.76
14790;BME280;7486;51.010;10.366;2023-02-02T04:16:11;98422.81;;;-0.01;75.30
14790;BME280;7486;51.010;10.366;2023-02-02T04:18:38;98425.69;;;0.16;74.83
14790;BME280;7486;51.010;10.366;2023-02-02T04:21:06;98421.88;;;0.20;74.42
14790;BME280;7486;51.010;10.366;2023-02-02T04:23:33;98377.00;;;-0.03;74.11
14790;BME280;7486;51.010;10.366;2023-02-02T04:26:00;98424.88;;;0.15;74.94
14790;BME280;7486;51.010;10.366;2023-02-02T04:28:27;98431.63;;;0.27;74.62
14790;BME280;7486;51.010;10.366;2023-02-02T04:30:55;98422.81;;;0.38;75.04
14790;BME280;7486;51.010;10.366;2023-02-02T04:33:23;98437.94;;;0.44;74.16
14790;BME280;7486;51.010;10.366;2023-02-02T04:35:50;98432.44;;;0.37;74.34
14790;BME280;7486;51.010;10.366;2023-02-02T04:38:17;98414.06;;;0.20;74.92
14790;BME280;7486;51.010;10.366;2023-02-02T04:40:46;98433.78;;;0.32;75.54
14790;BME280;7486;51.010;10.366;2023-02-02T04:43:13;98426.13;;;0.49;74.14
14790;BME280;7486;51.010;10.366;2023-02-02T04:45:40;98440.13;;;0.58;74.27
14790;BME280;7486;51.010;10.366;2023-02-02T04:48:06;98421.72;;;0.21;75.28
14790;BME280;7486;51.010;10.366;2023-02-02T04:50:33;98392.13;;;0.22;75.03
14790;BME280;7486;51.010;10.366;2023-02-02T04:53:00;98446.56;;;0.63;74.47
14790;BME280;7486;51.010;10.366;2023-02-02T04:55:26;98443.66;;;0.76;74.47
14790;BME280;7486;51.010;10.366;2023-02-02T04:57:53;98447.94;;;0.58;74.91
14790;BME280;7486;51.010;10.366;2023-02-02T05:00:20;98457.94;;;0.72;75.01
14790;BME280;7486;51.010;10.366;2023-02-02T05:02:47;98454.94;;;0.67;75.01
14790;BME280;7486;51.010;10.366;2023-02-02T05:05:14;98455.22;;;0.74;75.13
14790;BME280;7486;51.010;10.366;2023-02-02T05:07:40;98460.28;;;0.85;74.25
14790;BME280;7486;51.010;10.366;2023-02-02T05:10:08;98439.28;;;0.77;74.32
14790;BME280;7486;51.010;10.366;2023-02-02T05:12:35;98445.06;;;0.61;75.36
14790;BME280;7486;51.010;10.366;2023-02-02T05:15:02;98463.97;;;0.82;75.12
14790;BME280;7486;51.010;10.366;2023-02-02T05:17:30;98467.03;;;0.68;75.78
14790;BME280;7486;51.010;10.366;2023-02-02T05:19:57;98449.44;;;0.60;76.01
14790;BME280;7486;51.010;10.366;2023-02-02T05:22:23;98387.03;;;0.21;76.41
14790;BME280;7486;51.010;10.366;2023-02-02T05:24:50;98467.69;;;0.80;75.40
14790;BME280;7486;51.010;10.366;2023-02-02T05:27:17;98471.94;;;0.81;76.24
14790;BME280;7486;51.010;10.366;2023-02-02T05:29:46;98480.50;;;0.92;75.19
14790;BME280;7486;51.010;10.366;2023-02-02T05:32:12;98434.34;;;0.74;75.37
14790;BME280;7486;51.010;10.366;2023-02-02T05:34:39;98486.06;;;1.17;74.36
14790;BME280;7486;51.010;10.366;2023-02-02T05:37:06;98475.09;;;1.13;74.13
14790;BME280;7486;51.010;10.366;2023-02-02T05:39:32;98483.03;;;1.21;73.83
14790;BME280;7486;51.010;10.366;2023-02-02T05:41:59;98474.28;;;1.03;74.34
14790;BME280;7486;51.010;10.366;2023-02-02T05:44:26;98485.50;;;1.13;74.16
14790;BME280;7486;51.010;10.366;2023-02-02T05:46:54;98483.16;;;1.29;73.50
14790;BME280;7486;51.010;10.366;2023-02-02T05:49:21;98482.38;;;1.19;73.33
14790;BME280;7486;51.010;10.366;2023-02-02T05:51:52;98485.63;;;1.31;73.62
14790;BME280;7486;51.010;10.366;2023-02-02T05:54:20;98479.28;;;1.43;73.04
14790;BME280;7486;51.010;10.366;2023-02-02T05:56:48;98482.28;;;1.57;72.65
14790;BME280;7486;51.010;10.366;2023-02-02T05:59:17;98494.75;;;1.63;72.01
14790;BME280;7486;51.010;10.366;2023-02-02T06:01:45;98486.47;;;1.78;71.46
14790;BME280;7486;51.010;10.366;2023-02-02T06:04:15;98475.59;;;1.73;71.23
14790;BME280;7486;51.010;10.366;2023-02-02T06:06:52;98490.97;;;1.76;71.09
14790;BME280;7486;51.010;10.366;2023-02-02T06:09:19;98487.28;;;1.69;71.54
14790;BME280;7486;51.010;10.366;2023-02-02T06:11:45;98495.25;;;1.77;71.53
14790;BME280;7486;51.010;10.366;2023-02-02T06:14:13;98496.13;;;1.68;71.71
14790;BME280;7486;51.010;10.366;2023-02-02T06:16:42;98496.25;;;1.66;72.06
14790;BME280;7486;51.010;10.366;2023-02-02T06:19:11;98499.00;;;1.64;71.91
14790;BME280;7486;51.010;10.366;2023-02-02T06:21:38;98512.16;;;1.73;71.52
14790;BME280;7486;51.010;10.366;2023-02-02T06:24:05;98513.84;;;1.64;72.03
14790;BME280;7486;51.010;10.366;2023-02-02T06:26:34;98516.66;;;1.34;72.75
14790;BME280;7486;51.010;10.366;2023-02-02T06:29:05;98525.47;;;1.13;74.23
14790;BME280;7486;51.010;10.366;2023-02-02T06:31:37;98530.44;;;1.07;74.70
14790;BME280;7486;51.010;10.366;2023-02-02T06:34:05;98471.69;;;0.93;74.01
14790;BME280;7486;51.010;10.366;2023-02-02T06:36:35;98526.94;;;1.45;73.40
14790;BME280;7486;51.010;10.366;2023-02-02T06:39:04;98509.78;;;1.42;72.87
14790;BME280;7486;51.010;10.366;2023-02-02T06:41:31;98526.28;;;1.43;72.98
14790;BME280;7486;51.010;10.366;2023-02-02T06:44:00;98533.97;;;1.35;72.79
14790;BME280;7486;51.010;10.366;2023-02-02T06:46:28;98535.22;;;1.40;73.69
14790;BME280;7486;51.010;10.366;2023-02-02T06:48:56;98539.16;;;1.44;73.27
14790;BME280;7486;51.010;10.366;2023-02-02T06:51:25;98539.19;;;1.35;73.76
14790;BME280;7486;51.010;10.366;2023-02-02T06:53:53;98543.88;;;1.12;75.14
14790;BME280;7486;51.010;10.366;2023-02-02T06:56:20;98550.47;;;0.97;76.79
14790;BME280;7486;51.010;10.366;2023-02-02T06:58:48;98557.34;;;0.88;77.57
14790;BME280;7486;51.010;10.366;2023-02-02T07:01:19;98560.50;;;0.92;77.81
14790;BME280;7486;51.010;10.366;2023-02-02T07:03:51;98568.47;;;0.90;78.83
14790;BME280;7486;51.010;10.366;2023-02-02T07:06:22;98570.78;;;1.03;77.89
14790;BME280;7486;51.010;10.366;2023-02-02T07:08:51;98560.63;;;1.00;78.05
14790;BME280;7486;51.010;10.366;2023-02-02T07:11:32;98567.22;;;1.04;78.75
14790;BME280;7486;51.010;10.366;2023-02-02T07:14:06;98564.88;;;1.01;78.98
14790;BME280;7486;51.010;10.366;2023-02-02T07:16:33;98572.41;;;0.85;79.46
14790;BME280;7486;51.010;10.366;2023-02-02T07:19:00;98572.38;;;0.66;81.19
14790;BME280;7486;51.010;10.366;2023-02-02T07:21:27;98582.94;;;0.64;81.99
14790;BME280;7486;51.010;10.366;2023-02-02T07:23:54;98578.97;;;0.70;81.90
14790;BME280;7486;51.010;10.366;2023-02-02T07:26:21;98588.16;;;0.74;81.65
14790;BME280;7486;51.010;10.366;2023-02-02T07:28:47;98589.66;;;0.67;81.70
14790;BME280;7486;51.010;10.366;2023-02-02T07:31:24;98595.97;;;0.54;82.90
14790;BME280;7486;51.010;10.366;2023-02-02T07:33:52;98583.59;;;0.56;82.31
14790;BME280;7486;51.010;10.366;2023-02-02T07:36:21;98610.97;;;0.72;82.44
14790;BME280;7486;51.010;10.366;2023-02-02T07:38:51;98605.56;;;0.63;82.37
14790;BME280;7486;51.010;10.366;2023-02-02T07:41:18;98608.50;;;0.30;83.64
14790;BME280;7486;51.010;10.366;2023-02-02T07:43:46;98610.13;;;0.31;84.22
14790;BME280;7486;51.010;10.366;2023-02-02T07:46:15;98623.69;;;0.25;84.68
14790;BME280;7486;51.010;10.366;2023-02-02T07:48:42;98614.66;;;0.29;84.83
14790;BME280;7486;51.010;10.366;2023-02-02T07:51:13;98605.09;;;0.39;84.56
14790;BME280;7486;51.010;10.366;2023-02-02T07:53:45;98612.22;;;0.37;84.39
14790;BME280;7486;51.010;10.366;2023-02-02T07:56:15;98600.94;;;0.27;84.13
14790;BME280;7486;51.010;10.366;2023-02-02T07:58:43;98618.81;;;0.11;84.94
14790;BME280;7486;51.010;10.366;2023-02-02T08:01:11;98622.94;;;0.44;84.20
14790;BME280;7486;51.010;10.366;2023-02-02T08:03:38;98627.75;;;0.48;84.44
14790;BME280;7486;51.010;10.366;2023-02-02T08:06:11;98633.53;;;0.52;84.36
14790;BME280;7486;51.010;10.366;2023-02-02T08:08:39;98593.59;;;0.11;84.52
14790;BME280;7486;51.010;10.366;2023-02-02T08:11:08;98634.72;;;0.38;83.97
14790;BME280;7486;51.010;10.366;2023-02-02T08:13:35;98638.16;;;0.48;84.62
14790;BME280;7486;51.010;10.366;2023-02-02T08:16:02;98630.91;;;0.52;83.67
14790;BME280;7486;51.010;10.366;2023-02-02T08:18:29;98649.56;;;0.47;84.49
14790;BME280;7486;51.010;10.366;2023-02-02T08:21:00;98650.25;;;0.49;84.09
14790;BME280;7486;51.010;10.366;2023-02-02T08:23:27;98652.75;;;0.51;84.17
14790;BME280;7486;51.010;10.366;2023-02-02T08:26:22;98654.13;;;0.25;84.42
14790;BME280;7486;51.010;10.366;2023-02-02T08:28:58;98649.47;;;0.28;84.12
14790;BME280;7486;51.010;10.366;2023-02-02T08:31:28;98665.41;;;0.35;83.35
14790;BME280;7486;51.010;10.366;2023-02-02T08:33:57;98675.19;;;0.42;83.64
14790;BME280;7486;51.010;10.366;2023-02-02T08:36:25;98679.13;;;0.27;82.47
14790;BME280;7486;51.010;10.366;2023-02-02T08:38:53;98677.69;;;-0.07;84.58
14790;BME280;7486;51.010;10.366;2023-02-02T08:41:22;98683.25;;;-0.12;85.14
14790;BME280;7486;51.010;10.366;2023-02-02T08:43:49;98639.91;;;-0.43;85.72
14790;BME280;7486;51.010;10.366;2023-02-02T08:46:18;98687.19;;;0.03;84.53
14790;BME280;7486;51.010;10.366;2023-02-02T08:48:46;98685.97;;;0.07;83.85
14790;BME280;7486;51.010;10.366;2023-02-02T08:51:15;98680.38;;;0.12;83.27
14790;BME280;7486;51.010;10.366;2023-02-02T08:53:42;98683.47;;;-0.04;83.69
14790;BME280;7486;51.010;10.366;2023-02-02T08:56:12;98685.84;;;0.09;83.31
14790;BME280;7486;51.010;10.366;2023-02-02T08:58:44;98673.34;;;0.03;82.53
14790;BME280;7486;51.010;10.366;2023-02-02T09:01:16;98689.25;;;-0.00;82.52
14790;BME280;7486;51.010;10.366;2023-02-02T09:03:44;98675.56;;;-0.13;82.29
14790;BME280;7486;51.010;10.366;2023-02-02T09:06:13;98690.34;;;0.07;82.63
14790;BME280;7486;51.010;10.366;2023-02-02T09:08:40;98696.03;;;-0.09;81.89
14790;BME280;7486;51.010;10.366;2023-02-02T09:11:26;98693.94;;;-0.15;82.39
14790;BME280;7486;51.010;10.366;2023-02-02T09:13:55;98696.34;;;-0.02;81.95
14790;BME280;7486;51.010;10.366;2023-02-02T09:16:24;98696.34;;;-0.02;81.78
14790;BME280;7486;51.010;10.366;2023-02-02T09:18:51;98695.56;;;-0.14;81.99
14790;BME280;7486;51.010;10.366;2023-02-02T09:21:22;98688.56;;;-0.34;82.44
14790;BME280;7486;51.010;10.366;2023-02-02T09:23:50;98668.63;;;-0.45;82.52
14790;BME280;7486;51.010;10.366;2023-02-02T09:26:18;98717.13;;;-0.44;83.43
14790;BME280;7486;51.010;10.366;2023-02-02T09:28:51;98639.16;;;-0.86;83.29
14790;BME280;7486;51.010;10.366;2023-02-02T09:31:18;98709.59;;;-0.58;83.97
14790;BME280;7486;51.010;10.366;2023-02-02T09:33:44;98704.63;;;-0.50;83.63
14790;BME280;7486;51.010;10.366;2023-02-02T09:36:20;98708.81;;;-0.38;83.51
14790;BME280;7486;51.010;10.366;2023-02-02T09:38:48;98712.75;;;-0.43;83.33
14790;BME280;7486;51.010;10.366;2023-02-02T09:49:38;98728.16;;;-0.94;85.73
14790;BME280;7486;51.010;10.366;2023-02-02T09:52:14;98725.31;;;-0.91;85.66
14790;BME280;7486;51.010;10.366;2023-02-02T09:54:49;98698.91;;;-1.18;85.58
14790;BME280;7486;51.010;10.366;2023-02-02T09:57:24;98738.81;;;-0.97;86.66
14790;BME280;7486;51.010;10.366;2023-02-02T09:59:53;98721.53;;;-0.98;85.89
14790;BME280;7486;51.010;10.366;2023-02-02T10:02:24;98739.41;;;-0.94;85.53
14790;BME280;7486;51.010;10.366;2023-02-02T10:05:04;98749.78;;;-0.94;86.21
14790;BME280;7486;51.010;10.366;2023-02-02T10:07:37;98744.44;;;-0.81;85.20
14790;BME280;7486;51.010;10.366;2023-02-02T10:13:00;98760.97;;;-0.71;84.73
14790;BME280;7486;51.010;10.366;2023-02-02T10:18:44;98768.41;;;-0.66;83.97
14790;BME280;7486;51.010;10.366;2023-02-02T10:23:57;98712.47;;;-1.04;84.10
14790;BME280;7486;51.010;10.366;2023-02-02T10:26:38;98768.19;;;-0.63;84.29
14790;BME280;7486;51.010;10.366;2023-02-02T10:45:28;98780.34;;;-0.53;84.02
14790;BME280;7486;51.010;10.366;2023-02-02T10:47:55;98785.63;;;-0.43;83.91
14790;BME280;7486;51.010;10.366;2023-02-02T10:50:22;98767.19;;;-0.51;83.46
14790;BME280;7486;51.010;10.366;2023-02-02T10:53:01;98781.84;;;-0.50;83.44
14790;BME280;7486;51.010;10.366;2023-02-02T10:55:44;98769.94;;;-0.53;83.44
14790;BME280;7486;51.010;10.366;2023-02-02T10:58:38;98788.38;;;-0.56;83.26
14790;BME280;7486;51.010;10.366;2023-02-02T11:01:07;98798.06;;;-0.47;83.42
14790;BME280;7486;51.010;10.366;2023-02-02T11:03:35;98800.22;;;-0.63;83.34
14790;BME280;7486;51.010;10.366;2023-02-02T11:06:04;98796.19;;;-0.56;84.37
14790;BME280;7486;51.010;10.366;2023-02-02T11:08:36;98797.25;;;-0.58;84.67
14790;BME280;7486;51.010;10.366;2023-02-02T11:11:19;98789.50;;;-0.38;84.12
14790;BME280;7486;51.010;10.366;2023-02-02T11:16:40;98790.13;;;-0.45;84.37
14790;BME280;7486;51.010;10.366;2023-02-02T11:21:53;98795.34;;;-0.45;84.83
14790;BME280;7486;51.010;10.366;2023-02-02T11:24:25;98804.31;;;-0.38;84.02
14790;BME280;7486;51.010;10.366;2023-02-02T11:29:41;98790.81;;;-0.32;83.84
14790;BME280;7486;51.010;10.366;2023-02-02T11:37:31;98796.59;;;-0.28;84.21
14790;BME280;7486;51.010;10.366;2023-02-02T11:43:02;98796.94;;;-0.33;84.11
14790;BME280;7486;51.010;10.366;2023-02-02T11:45:37;98817.41;;;-0.28;84.21
14790;BME280;7486;51.010;10.366;2023-02-02T11:48:13;98824.38;;;-0.29;84.14
14790;BME280;7486;51.010;10.366;2023-02-02T11:50:50;98826.44;;;-0.44;84.39
14790;BME280;7486;51.010;10.366;2023-02-02T11:55:49;98819.63;;;-0.24;84.97
14790;BME280;7486;51.010;10.366;2023-02-02T11:58:22;98823.31;;;-0.26;84.71
14790;BME280;7486;51.010;10.366;2023-02-02T12:00:53;98831.84;;;-0.24;84.63
14790;BME280;7486;51.010;10.366;2023-02-02T12:03:28;98820.19;;;-0.09;83.50
14790;BME280;7486;51.010;10.366;2023-02-02T12:05:55;98816.94;;;-0.33;83.95
14790;BME280;7486;51.010;10.366;2023-02-02T12:08:22;98829.47;;;-0.27;84.37
14790;BME280;7486;51.010;10.366;2023-02-02T12:11:00;98820.44;;;-0.12;84.46
14790;BME280;7486;51.010;10.366;2023-02-02T12:13:39;98819.03;;;-0.16;83.79
14790;BME280;7486;51.010;10.366;2023-02-02T12:30:19;98818.59;;;-0.32;85.76
14790;BME280;7486;51.010;10.366;2023-02-02T12:40:50;98812.88;;;-0.15;86.40
14790;BME280;7486;51.010;10.366;2023-02-02T12:43:40;98807.53;;;-0.14;86.75
14790;BME280;7486;51.010;10.366;2023-02-02T13:00:22;98811.44;;;-0.08;87.34
14790;BME280;7486;51.010;10.366;2023-02-02T13:05:49;98817.25;;;0.16;87.76
14790;BME280;7486;51.010;10.366;2023-02-02T13:08:53;98810.50;;;0.14;87.68
14790;BME280;7486;51.010;10.366;2023-02-02T13:11:32;98813.63;;;0.28;86.91
14790;BME280;7486;51.010;10.366;2023-02-02T13:14:12;98817.00;;;0.19;87.86
14790;BME280;7486;51.010;10.366;2023-02-02T13:16:43;98815.53;;;0.26;87.59
14790;BME280;7486;51.010;10.366;2023-02-02T13:19:19;98827.16;;;0.22;87.71
14790;BME280;7486;51.010;10.366;2023-02-02T13:21:51;98771.81;;;-0.23;87.74
14790;BME280;7486;51.010;10.366;2023-02-02T13:24:26;98816.63;;;0.24;87.64
14790;BME280;7486;51.010;10.366;2023-02-02T13:26:56;98816.03;;;0.20;87.57
14790;BME280;7486;51.010;10.366;2023-02-02T13:29:38;98814.75;;;0.35;87.35
14790;BME280;7486;51.010;10.366;2023-02-02T13:32:20;98806.69;;;0.18;87.44
14790;BME280;7486;51.010;10.366;2023-02-02T13:35:02;98820.78;;;0.15;87.37
14790;BME280;7486;51.010;10.366;2023-02-02T13:37:41;98825.19;;;0.35;87.15
14790;BME280;7486;51.010;10.366;2023-02-02T13:40:37;98825.06;;;0.16;87.43
14790;BME280;7486;51.010;10.366;2023-02-02T13:48:30;98834.03;;;0.65;86.24
14790;BME280;7486;51.010;10.366;2023-02-02T13:54:18;98837.25;;;0.78;85.88
14790;BME280;7486;51.010;10.366;2023-02-02T13:59:28;98830.91;;;0.71;86.04
14790;BME280;7486;51.010;10.366;2023-02-02T14:02:01;98848.22;;;0.72;85.05
14790;BME280;7486;51.010;10.366;2023-02-02T14:04:30;98841.28;;;0.61;85.26
14790;BME280;7486;51.010;10.366;2023-02-02T14:06:59;98836.06;;;0.61;85.19
14790;BME280;7486;51.010;10.366;2023-02-02T14:09:30;98792.09;;;0.26;85.41
14790;BME280;7486;51.010;10.366;2023-02-02T14:12:01;98848.22;;;0.72;85.15
14790;BME280;7486;51.010;10.366;2023-02-02T14:14:29;98808.88;;;0.54;84.68
14790;BME280;7486;51.010;10.366;2023-02-02T14:16:58;98770.47;;;0.15;84.22
14790;BME280;7486;51.010;10.366;2023-02-02T14:34:51;98852.19;;;0.34;85.86
14790;BME280;7486;51.010;10.366;2023-02-02T14:42:55;98882.78;;;0.32;86.13
14790;BME280;7486;51.010;10.366;2023-02-02T14:50:47;98880.06;;;0.54;86.21
14790;BME280;7486;51.010;10.366;2023-02-02T14:53:16;98892.97;;;0.56;85.47
14790;BME280;7486;51.010;10.366;2023-02-02T14:56:37;98894.56;;;0.47;85.64
14790;BME280;7486;51.010;10.366;2023-02-02T14:58:57;98898.63;;;0.61;86.18
14790;BME280;7486;51.010;10.366;2023-02-02T15:01:28;98898.38;;;0.64;85.16
14790;BME280;7486;51.010;10.366;2023-02-02T15:06:34;98915.88;;;0.41;86.00
14790;BME280;7486;51.010;10.366;2023-02-02T15:14:50;98921.69;;;0.45;86.18
14790;BME280;7486;51.010;10.366;2023-02-02T15:20:49;98940.47;;;0.59;85.30
14790;BME280;7486;51.010;10.366;2023-02-02T15:29:06;98951.72;;;0.60;85.41
14790;BME280;7486;51.010;10.366;2023-02-02T15:31:42;98948.47;;;0.47;86.07
14790;BME280;7486;51.010;10.366;2023-02-02T15:34:19;98959.28;;;0.31;86.25
14790;BME280;7486;51.010;10.366;2023-02-02T15:36:51;98961.41;;;0.37;85.69
14790;BME280;7486;51.010;10.366;2023-02-02T15:41:56;98965.25;;;0.54;86.09
14790;BME280;7486;51.010;10.366;2023-02-02T15:44:27;98965.59;;;0.60;85.02
14790;BME280;7486;51.010;10.366;2023-02-02T15:46:54;98946.19;;;0.53;83.95
14790;BME280;7486;51.010;10.366;2023-02-02T15:49:26;98975.78;;;0.52;83.84
14790;BME280;7486;51.010;10.366;2023-02-02T15:52:29;98982.06;;;0.61;84.52
14790;BME280;7486;51.010;10.366;2023-02-02T15:54:56;98976.97;;;0.59;84.12
14790;BME280;7486;51.010;10.366;2023-02-02T15:57:32;98987.59;;;0.68;84.05
14790;BME280;7486;51.010;10.366;2023-02-02T16:00:20;99002.34;;;0.57;84.15
14790;BME280;7486;51.010;10.366;2023-02-02T16:02:51;98995.44;;;0.56;83.73
14790;BME280;7486;51.010;10.366;2023-02-02T16:07:59;99002.69;;;0.53;84.14
14790;BME280;7486;51.010;10.366;2023-02-02T16:10:32;99014.03;;;0.63;83.52
14790;BME280;7486;51.010;10.366;2023-02-02T16:13:00;99023.22;;;0.46;84.49
14790;BME280;7486;51.010;10.366;2023-02-02T16:15:28;99016.59;;;0.42;84.38
14790;BME280;7486;51.010;10.366;2023-02-02T16:18:01;99032.63;;;0.58;83.97
14790;BME280;7486;51.010;10.366;2023-02-02T16:20:32;99042.03;;;0.50;84.50
14790;BME280;7486;51.010;10.366;2023-02-02T16:23:01;99045.84;;;0.35;84.79
14790;BME280;7486;51.010;10.366;2023-02-02T16:25:35;99032.53;;;0.17;85.25